createdAt,value
2022-10-26T00:00:42.025Z,1008.57
2022-10-26T00:01:42.143Z,1008.59
2022-10-26T00:02:42.050Z,1008.59
2022-10-26T00:03:41.974Z,1008.55
2022-10-26T00:04:41.947Z,1008.57
2022-10-26T00:05:41.927Z,1008.55
2022-10-26T00:06:41.904Z,1008.54
2022-10-26T00:07:42.001Z,1008.51
2022-10-26T00:08:41.869Z,1008.50
2022-10-26T00:09:41.849Z,1008.50
2022-10-26T00:10:41.824Z,1008.48
2022-10-26T00:11:41.808Z,1008.49
2022-10-26T00:12:41.786Z,1008.49
2022-10-26T00:13:41.764Z,1008.45
2022-10-26T00:14:41.774Z,1008.47
2022-10-26T00:15:41.730Z,1008.48
2022-10-26T00:16:41.707Z,1008.47
2022-10-26T00:17:41.689Z,1008.47
2022-10-26T00:18:41.669Z,1008.46
2022-10-26T00:19:41.647Z,1008.49
2022-10-26T00:20:41.625Z,1008.45
2022-10-26T00:21:41.608Z,1008.47
2022-10-26T00:22:41.589Z,1008.46
2022-10-26T00:23:41.575Z,1008.45
2022-10-26T00:24:41.550Z,1008.46
2022-10-26T00:25:41.532Z,1008.44
2022-10-26T00:26:41.506Z,1008.43
2022-10-26T00:27:41.491Z,1008.45
2022-10-26T00:28:41.469Z,1008.44
2022-10-26T00:29:41.451Z,1008.44
2022-10-26T00:30:41.446Z,1008.45
2022-10-26T00:31:41.409Z,1008.45
2022-10-26T00:32:41.416Z,1008.44
2022-10-26T00:33:41.368Z,1008.43
2022-10-26T00:34:41.349Z,1008.47
2022-10-26T00:35:45.869Z,1008.44
2022-10-26T00:36:41.311Z,1008.41
2022-10-26T00:37:41.290Z,1008.45
2022-10-26T00:38:41.269Z,1008.46
2022-10-26T00:39:41.249Z,1008.40
2022-10-26T00:40:41.230Z,1008.38
2022-10-26T00:41:41.208Z,1008.37
2022-10-26T00:42:41.187Z,1008.38
2022-10-26T00:43:41.169Z,1008.37
2022-10-26T00:44:41.147Z,1008.38
2022-10-26T00:45:41.127Z,1008.36
2022-10-26T00:46:41.125Z,1008.37
2022-10-26T00:47:41.086Z,1008.33
2022-10-26T00:48:41.066Z,1008.35
2022-10-26T00:49:41.053Z,1008.36
2022-10-26T00:50:41.021Z,1008.36
2022-10-26T00:51:41.003Z,1008.34
2022-10-26T00:52:40.984Z,1008.32
2022-10-26T00:53:40.966Z,1008.33
2022-10-26T00:54:40.945Z,1008.32
2022-10-26T00:55:40.923Z,1008.34
2022-10-26T00:56:40.906Z,1008.28
2022-10-26T00:57:40.893Z,1008.34
2022-10-26T00:58:40.870Z,1008.33
2022-10-26T00:59:40.847Z,1008.31
2022-10-26T01:00:40.829Z,1008.33
2022-10-26T01:01:40.924Z,1008.31
2022-10-26T01:02:40.806Z,1008.32
2022-10-26T01:03:40.867Z,1008.31
2022-10-26T01:04:40.752Z,1008.29
2022-10-26T01:05:40.732Z,1008.26
2022-10-26T01:06:40.707Z,1008.30
2022-10-26T01:07:40.684Z,1008.27
2022-10-26T01:08:40.665Z,1008.25
2022-10-26T01:09:40.646Z,1008.23
2022-10-26T01:10:40.626Z,1008.23
2022-10-26T01:11:40.604Z,1008.22
2022-10-26T01:12:40.589Z,1008.24
2022-10-26T01:13:40.572Z,1008.21
2022-10-26T01:14:40.546Z,1008.18
2022-10-26T01:15:40.526Z,1008.23
2022-10-26T01:16:42.686Z,1008.17
2022-10-26T01:17:40.484Z,1008.21
2022-10-26T01:18:40.485Z,1008.18
2022-10-26T01:19:40.446Z,1008.17
2022-10-26T01:20:40.424Z,1008.15
2022-10-26T01:21:40.405Z,1008.16
2022-10-26T01:22:40.386Z,1008.13
2022-10-26T01:23:40.367Z,1008.12
2022-10-26T01:24:40.347Z,1008.16
2022-10-26T01:25:40.327Z,1008.13
2022-10-26T01:26:40.376Z,1008.13
2022-10-26T01:27:40.287Z,1008.13
2022-10-26T01:28:40.270Z,1008.15
2022-10-26T01:29:40.243Z,1008.12
2022-10-26T01:30:40.227Z,1008.13
2022-10-26T01:31:40.202Z,1008.12
2022-10-26T01:32:40.186Z,1008.11
2022-10-26T01:33:40.163Z,1008.09
2022-10-26T01:34:40.174Z,1008.08
2022-10-26T01:35:40.125Z,1008.10
2022-10-26T01:36:40.106Z,1008.08
2022-10-26T01:37:40.086Z,1008.08
2022-10-26T01:38:40.063Z,1008.04
2022-10-26T01:39:40.043Z,1008.05
2022-10-26T01:40:40.027Z,1008.01
2022-10-26T01:41:40.008Z,1008.01
2022-10-26T01:42:39.985Z,1007.97
2022-10-26T01:43:39.965Z,1007.97
2022-10-26T01:44:39.951Z,1007.94
2022-10-26T01:45:39.923Z,1007.93
2022-10-26T01:46:39.908Z,1007.93
2022-10-26T01:47:39.888Z,1007.93
2022-10-26T01:48:39.867Z,1007.94
2022-10-26T01:49:39.847Z,1007.90
2022-10-26T01:50:39.843Z,1007.93
2022-10-26T01:51:39.803Z,1007.95
2022-10-26T01:52:39.784Z,1007.89
2022-10-26T01:53:39.765Z,1007.91
2022-10-26T01:54:39.772Z,1007.89
2022-10-26T01:55:39.725Z,1007.89
2022-10-26T01:56:39.703Z,1007.86
2022-10-26T01:57:39.692Z,1007.88
2022-10-26T01:58:39.664Z,1007.83
2022-10-26T01:59:39.647Z,1007.83
2022-10-26T02:00:39.625Z,1007.80
2022-10-26T02:01:39.656Z,1007.78
2022-10-26T02:02:39.583Z,1007.80
2022-10-26T02:03:39.651Z,1007.80
2022-10-26T02:04:39.539Z,1007.79
2022-10-26T02:05:39.520Z,1007.79
2022-10-26T02:06:39.524Z,1007.78
2022-10-26T02:07:39.485Z,1007.81
2022-10-26T02:08:39.466Z,1007.74
2022-10-26T02:09:39.448Z,1007.75
2022-10-26T02:10:39.423Z,1007.74
2022-10-26T02:11:39.399Z,1007.70
2022-10-26T02:12:39.390Z,1007.68
2022-10-26T02:13:39.369Z,1007.66
2022-10-26T02:14:39.344Z,1007.64
2022-10-26T02:15:39.323Z,1007.63
2022-10-26T02:16:39.303Z,1007.59
2022-10-26T02:17:39.279Z,1007.59
2022-10-26T02:18:39.264Z,1007.56
2022-10-26T02:19:39.241Z,1007.58
2022-10-26T02:20:39.225Z,1007.56
2022-10-26T02:21:39.206Z,1007.55
2022-10-26T02:22:39.204Z,1007.56
2022-10-26T02:23:39.162Z,1007.56
2022-10-26T02:24:39.140Z,1007.54
2022-10-26T02:25:39.125Z,1007.55
2022-10-26T02:26:39.102Z,1007.54
2022-10-26T02:27:39.085Z,1007.57
2022-10-26T02:28:39.066Z,1007.57
2022-10-26T02:29:39.040Z,1007.58
2022-10-26T02:30:39.022Z,1007.55
2022-10-26T02:31:39.005Z,1007.53
2022-10-26T02:32:38.985Z,1007.52
2022-10-26T02:33:38.988Z,1007.50
2022-10-26T02:34:38.942Z,1007.50
2022-10-26T02:35:38.928Z,1007.47
2022-10-26T02:36:38.896Z,1007.49
2022-10-26T02:37:38.876Z,1007.51
2022-10-26T02:38:38.880Z,1007.45
2022-10-26T02:39:38.833Z,1007.49
2022-10-26T02:40:38.823Z,1007.47
2022-10-26T02:41:38.802Z,1007.47
2022-10-26T02:42:38.778Z,1007.44
2022-10-26T02:43:38.755Z,1007.43
2022-10-26T02:44:38.737Z,1007.42
2022-10-26T02:45:38.716Z,1007.38
2022-10-26T02:46:38.695Z,1007.38
2022-10-26T02:47:38.680Z,1007.37
2022-10-26T02:48:38.654Z,1007.39
2022-10-26T02:49:38.637Z,1007.39
2022-10-26T02:50:38.614Z,1007.40
2022-10-26T02:51:38.656Z,1007.38
2022-10-26T02:52:38.580Z,1007.35
2022-10-26T02:53:38.555Z,1007.37
2022-10-26T02:54:38.561Z,1007.36
2022-10-26T02:55:38.515Z,1007.37
2022-10-26T02:56:38.498Z,1007.35
2022-10-26T02:57:38.475Z,1007.39
2022-10-26T02:58:38.453Z,1007.36
2022-10-26T02:59:38.431Z,1007.37
2022-10-26T03:00:38.412Z,1007.35
2022-10-26T03:01:38.459Z,1007.35
2022-10-26T03:02:38.375Z,1007.35
2022-10-26T03:03:38.439Z,1007.31
2022-10-26T03:04:38.333Z,1007.31
2022-10-26T03:05:38.314Z,1007.28
2022-10-26T03:06:38.295Z,1007.28
2022-10-26T03:07:38.269Z,1007.26
2022-10-26T03:08:38.255Z,1007.26
2022-10-26T03:09:38.231Z,1007.27
2022-10-26T03:10:38.233Z,1007.25
2022-10-26T03:11:38.191Z,1007.27
2022-10-26T03:12:38.172Z,1007.25
2022-10-26T03:13:38.155Z,1007.28
2022-10-26T03:14:38.130Z,1007.26
2022-10-26T03:15:38.108Z,1007.26
2022-10-26T03:16:38.153Z,1007.29
2022-10-26T03:17:38.072Z,1007.29
2022-10-26T03:18:38.063Z,1007.26
2022-10-26T03:19:38.037Z,1007.24
2022-10-26T03:20:38.011Z,1007.24
2022-10-26T03:21:37.991Z,1007.22
2022-10-26T03:22:37.972Z,1007.23
2022-10-26T03:23:37.958Z,1007.22
2022-10-26T03:24:37.933Z,1007.23
2022-10-26T03:25:37.911Z,1007.27
2022-10-26T03:26:37.912Z,1007.27
2022-10-26T03:27:37.878Z,1007.27
2022-10-26T03:28:37.853Z,1007.30
2022-10-26T03:29:37.829Z,1007.28
2022-10-26T03:30:37.811Z,1007.31
2022-10-26T03:31:37.791Z,1007.31
2022-10-26T03:32:37.774Z,1007.30
2022-10-26T03:34:37.729Z,1007.30
2022-10-26T03:35:37.711Z,1007.29
2022-10-26T03:36:37.690Z,1007.26
2022-10-26T03:37:37.682Z,1007.26
2022-10-26T03:38:37.649Z,1007.24
2022-10-26T03:39:37.630Z,1007.20
2022-10-26T03:40:37.609Z,1007.20
2022-10-26T03:41:37.590Z,1007.15
2022-10-26T03:42:37.590Z,1007.15
2022-10-26T03:43:37.548Z,1007.15
2022-10-26T03:44:37.528Z,1007.14
2022-10-26T03:45:37.509Z,1007.16
2022-10-26T03:46:37.487Z,1007.13
2022-10-26T03:47:37.468Z,1007.14
2022-10-26T03:48:37.447Z,1007.19
2022-10-26T03:49:37.430Z,1007.20
2022-10-26T03:50:37.406Z,1007.16
2022-10-26T03:51:37.385Z,1007.18
2022-10-26T03:52:37.368Z,1007.18
2022-10-26T03:53:37.348Z,1007.19
2022-10-26T03:54:37.328Z,1007.21
2022-10-26T03:55:37.310Z,1007.18
2022-10-26T03:56:37.296Z,1007.22
2022-10-26T03:57:37.272Z,1007.19
2022-10-26T03:58:37.273Z,1007.19
2022-10-26T03:59:37.231Z,1007.18
2022-10-26T04:00:37.208Z,1007.19
2022-10-26T04:01:37.293Z,1007.19
2022-10-26T04:02:37.170Z,1007.20
2022-10-26T04:03:37.157Z,1007.19
2022-10-26T04:04:37.246Z,1007.19
2022-10-26T04:05:37.118Z,1007.22
2022-10-26T04:06:37.149Z,1007.21
2022-10-26T04:07:37.072Z,1007.21
2022-10-26T04:08:37.049Z,1007.18
2022-10-26T04:09:37.031Z,1007.19
2022-10-26T04:10:37.007Z,1007.18
2022-10-26T04:11:36.986Z,1007.20
2022-10-26T04:12:36.969Z,1007.18
2022-10-26T04:13:36.954Z,1007.17
2022-10-26T04:14:36.949Z,1007.20
2022-10-26T04:15:36.909Z,1007.17
2022-10-26T04:16:36.893Z,1007.19
2022-10-26T04:17:36.869Z,1007.16
2022-10-26T04:18:36.854Z,1007.19
2022-10-26T04:19:36.830Z,1007.15
2022-10-26T04:20:36.813Z,1007.12
2022-10-26T04:21:36.789Z,1007.17
2022-10-26T04:22:36.768Z,1007.19
2022-10-26T04:23:36.750Z,1007.18
2022-10-26T04:24:36.724Z,1007.18
2022-10-26T04:25:36.708Z,1007.17
2022-10-26T04:26:36.684Z,1007.13
2022-10-26T04:27:36.668Z,1007.16
2022-10-26T04:28:36.649Z,1007.14
2022-10-26T04:29:36.628Z,1007.12
2022-10-26T04:30:36.626Z,1007.13
2022-10-26T04:31:36.632Z,1007.13
2022-10-26T04:32:36.574Z,1007.10
2022-10-26T04:33:36.552Z,1007.09
2022-10-26T04:34:36.531Z,1007.12
2022-10-26T04:35:36.514Z,1007.11
2022-10-26T04:36:36.493Z,1007.12
2022-10-26T04:37:36.469Z,1007.05
2022-10-26T04:38:36.454Z,1007.08
2022-10-26T04:39:36.425Z,1007.05
2022-10-26T04:40:36.411Z,1007.08
2022-10-26T04:41:36.392Z,1007.03
2022-10-26T04:42:36.380Z,1007.03
2022-10-26T04:43:36.346Z,1007.01
2022-10-26T04:44:36.327Z,1007.06
2022-10-26T04:45:36.308Z,1007.04
2022-10-26T04:46:36.306Z,1007.04
2022-10-26T04:47:36.266Z,1007.09
2022-10-26T04:48:36.250Z,1007.07
2022-10-26T04:49:36.227Z,1007.10
2022-10-26T04:50:36.209Z,1007.05
2022-10-26T04:51:36.187Z,1007.03
2022-10-26T04:52:36.167Z,1007.05
2022-10-26T04:53:36.156Z,1007.08
2022-10-26T04:54:36.133Z,1007.07
2022-10-26T04:55:36.104Z,1007.03
2022-10-26T04:56:36.164Z,1007.06
2022-10-26T04:57:36.068Z,1007.05
2022-10-26T04:58:36.045Z,1007.05
2022-10-26T04:59:36.023Z,1007.04
2022-10-26T05:00:36.002Z,1007.07
2022-10-26T05:01:36.088Z,1007.08
2022-10-26T05:02:35.986Z,1007.08
2022-10-26T05:03:35.946Z,1007.08
2022-10-26T05:04:35.927Z,1007.08
2022-10-26T05:05:35.910Z,1007.11
2022-10-26T05:06:35.882Z,1007.13
2022-10-26T05:07:35.878Z,1007.13
2022-10-26T05:08:35.843Z,1007.12
2022-10-26T05:09:35.826Z,1007.11
2022-10-26T05:10:35.805Z,1007.09
2022-10-26T05:11:35.784Z,1007.13
2022-10-26T05:12:35.764Z,1007.10
2022-10-26T05:13:35.754Z,1007.11
2022-10-26T05:14:35.724Z,1007.09
2022-10-26T05:15:35.708Z,1007.11
2022-10-26T05:16:35.695Z,1007.13
2022-10-26T05:17:35.668Z,1007.11
2022-10-26T05:18:35.661Z,1007.13
2022-10-26T05:19:35.624Z,1007.09
2022-10-26T05:20:35.605Z,1007.15
2022-10-26T05:21:35.633Z,1007.14
2022-10-26T05:22:35.566Z,1007.14
2022-10-26T05:23:35.546Z,1007.09
2022-10-26T05:24:35.524Z,1007.10
2022-10-26T05:25:35.516Z,1007.16
2022-10-26T05:26:35.485Z,1007.13
2022-10-26T05:27:35.466Z,1007.15
2022-10-26T05:28:35.448Z,1007.15
2022-10-26T05:29:35.426Z,1007.14
2022-10-26T05:30:35.407Z,1007.11
2022-10-26T05:31:35.382Z,1007.11
2022-10-26T05:32:35.369Z,1007.14
2022-10-26T05:33:35.344Z,1007.12
2022-10-26T05:34:38.227Z,1007.13
2022-10-26T05:35:35.324Z,1007.14
2022-10-26T05:36:35.281Z,1007.17
2022-10-26T05:37:35.263Z,1007.12
2022-10-26T05:38:35.245Z,1007.13
2022-10-26T05:39:35.224Z,1007.14
2022-10-26T05:40:35.204Z,1007.14
2022-10-26T05:41:35.183Z,1007.13
2022-10-26T05:42:35.162Z,1007.18
2022-10-26T05:43:35.138Z,1007.16
2022-10-26T05:44:35.125Z,1007.16
2022-10-26T05:45:35.105Z,1007.19
2022-10-26T05:46:35.086Z,1007.21
2022-10-26T05:47:35.062Z,1007.21
2022-10-26T05:48:35.040Z,1007.22
2022-10-26T05:49:35.028Z,1007.24
2022-10-26T05:50:35.025Z,1007.22
2022-10-26T05:51:34.986Z,1007.24
2022-10-26T05:52:34.961Z,1007.25
2022-10-26T05:53:34.941Z,1007.24
2022-10-26T05:54:34.923Z,1007.23
2022-10-26T05:55:34.913Z,1007.25
2022-10-26T05:56:34.886Z,1007.28
2022-10-26T05:57:34.867Z,1007.30
2022-10-26T05:58:34.847Z,1007.28
2022-10-26T05:59:34.824Z,1007.29
2022-10-26T06:00:34.806Z,1007.29
2022-10-26T06:01:34.930Z,1007.31
2022-10-26T06:02:34.846Z,1007.32
2022-10-26T06:03:34.744Z,1007.31
2022-10-26T06:04:34.719Z,1007.33
2022-10-26T06:05:34.702Z,1007.33
2022-10-26T06:06:34.706Z,1007.34
2022-10-26T06:07:34.659Z,1007.34
2022-10-26T06:08:34.646Z,1007.35
2022-10-26T06:09:34.618Z,1007.38
2022-10-26T06:10:34.603Z,1007.37
2022-10-26T06:11:34.583Z,1007.36
2022-10-26T06:12:34.563Z,1007.40
2022-10-26T06:13:34.544Z,1007.38
2022-10-26T06:14:34.522Z,1007.39
2022-10-26T06:15:34.509Z,1007.37
2022-10-26T06:16:34.485Z,1007.40
2022-10-26T06:17:34.462Z,1007.42
2022-10-26T06:18:34.447Z,1007.40
2022-10-26T06:19:34.434Z,1007.42
2022-10-26T06:20:34.407Z,1007.45
2022-10-26T06:21:34.384Z,1007.40
2022-10-26T06:22:34.384Z,1007.43
2022-10-26T06:23:34.345Z,1007.40
2022-10-26T06:24:34.325Z,1007.42
2022-10-26T06:25:34.307Z,1007.39
2022-10-26T06:26:34.284Z,1007.37
2022-10-26T06:27:34.267Z,1007.39
2022-10-26T06:28:34.248Z,1007.42
2022-10-26T06:29:34.225Z,1007.40
2022-10-26T06:30:34.202Z,1007.37
2022-10-26T06:31:34.183Z,1007.41
2022-10-26T06:32:34.162Z,1007.40
2022-10-26T06:33:34.149Z,1007.38
2022-10-26T06:34:34.127Z,1007.36
2022-10-26T06:35:34.108Z,1007.37
2022-10-26T06:36:34.088Z,1007.34
2022-10-26T06:37:34.066Z,1007.34
2022-10-26T06:38:34.068Z,1007.36
2022-10-26T06:39:34.028Z,1007.37
2022-10-26T06:40:34.007Z,1007.35
2022-10-26T06:41:33.990Z,1007.37
2022-10-26T06:42:33.970Z,1007.37
2022-10-26T06:43:33.946Z,1007.37
2022-10-26T06:44:33.929Z,1007.35
2022-10-26T06:45:33.903Z,1007.37
2022-10-26T06:46:33.897Z,1007.41
2022-10-26T06:47:33.864Z,1007.38
2022-10-26T06:48:33.847Z,1007.35
2022-10-26T06:49:33.830Z,1007.40
2022-10-26T06:50:33.806Z,1007.38
2022-10-26T06:51:33.786Z,1007.37
2022-10-26T06:52:33.776Z,1007.39
2022-10-26T06:53:33.841Z,1007.41
2022-10-26T06:54:33.747Z,1007.41
2022-10-26T06:55:33.706Z,1007.42
2022-10-26T06:56:33.688Z,1007.45
2022-10-26T06:57:33.677Z,1007.47
2022-10-26T06:58:33.651Z,1007.49
2022-10-26T06:59:33.626Z,1007.45
2022-10-26T07:00:33.614Z,1007.47
2022-10-26T07:01:33.724Z,1007.51
2022-10-26T07:02:33.756Z,1007.44
2022-10-26T07:03:33.554Z,1007.46
2022-10-26T07:04:33.536Z,1007.48
2022-10-26T07:05:33.516Z,1007.49
2022-10-26T07:06:35.586Z,1007.48
2022-10-26T07:07:33.474Z,1007.53
2022-10-26T07:08:33.462Z,1007.54
2022-10-26T07:09:33.437Z,1007.53
2022-10-26T07:10:33.445Z,1007.56
2022-10-26T07:11:33.398Z,1007.55
2022-10-26T07:12:33.395Z,1007.59
2022-10-26T07:13:33.361Z,1007.65
2022-10-26T07:14:33.341Z,1007.61
2022-10-26T07:15:33.321Z,1007.62
2022-10-26T07:16:33.303Z,1007.66
2022-10-26T07:17:33.283Z,1007.65
2022-10-26T07:18:33.264Z,1007.61
2022-10-26T07:19:33.253Z,1007.66
2022-10-26T07:20:33.226Z,1007.62
2022-10-26T07:21:33.203Z,1007.63
2022-10-26T07:22:33.196Z,1007.58
2022-10-26T07:23:33.231Z,1007.61
2022-10-26T07:24:33.152Z,1007.58
2022-10-26T07:25:33.129Z,1007.59
2022-10-26T07:26:33.129Z,1007.60
2022-10-26T07:27:33.087Z,1007.58
2022-10-26T07:28:33.075Z,1007.57
2022-10-26T07:29:33.057Z,1007.59
2022-10-26T07:30:33.031Z,1007.59
2022-10-26T07:31:33.008Z,1007.60
2022-10-26T07:32:33.002Z,1007.62
2022-10-26T07:33:35.818Z,1007.61
2022-10-26T07:34:32.968Z,1007.60
2022-10-26T07:35:32.931Z,1007.62
2022-10-26T07:36:32.913Z,1007.62
2022-10-26T07:37:32.888Z,1007.60
2022-10-26T07:38:32.871Z,1007.62
2022-10-26T07:39:32.955Z,1007.62
2022-10-26T07:40:32.832Z,1007.63
2022-10-26T07:41:32.812Z,1007.64
2022-10-26T07:42:32.830Z,1007.62
2022-10-26T07:43:32.784Z,1007.63
2022-10-26T07:44:32.773Z,1007.59
2022-10-26T07:45:32.740Z,1007.64
2022-10-26T07:46:32.715Z,1007.64
2022-10-26T07:47:32.700Z,1007.69
2022-10-26T07:48:32.747Z,1007.69
2022-10-26T07:49:32.663Z,1007.73
2022-10-26T07:50:32.642Z,1007.73
2022-10-26T07:51:32.622Z,1007.71
2022-10-26T07:52:32.598Z,1007.72
2022-10-26T07:53:32.581Z,1007.71
2022-10-26T07:54:32.560Z,1007.69
2022-10-26T07:55:32.542Z,1007.69
2022-10-26T07:56:32.526Z,1007.67
2022-10-26T07:57:32.507Z,1007.71
2022-10-26T07:58:32.508Z,1007.68
2022-10-26T07:59:32.480Z,1007.67
2022-10-26T08:00:32.528Z,1007.68
2022-10-26T08:01:32.684Z,1007.68
2022-10-26T08:02:32.416Z,1007.71
2022-10-26T08:03:32.392Z,1007.68
2022-10-26T08:04:32.373Z,1007.70
2022-10-26T08:06:32.332Z,1007.71
2022-10-26T08:07:32.318Z,1007.73
2022-10-26T08:08:32.295Z,1007.73
2022-10-26T08:09:32.276Z,1007.71
2022-10-26T08:10:32.260Z,1007.75
2022-10-26T08:11:32.242Z,1007.70
2022-10-26T08:12:32.225Z,1007.69
2022-10-26T08:13:32.220Z,1007.68
2022-10-26T08:14:32.203Z,1007.70
2022-10-26T08:15:32.161Z,1007.73
2022-10-26T08:16:32.142Z,1007.69
2022-10-26T08:17:32.129Z,1007.68
2022-10-26T08:18:32.110Z,1007.72
2022-10-26T08:19:32.092Z,1007.69
2022-10-26T08:20:32.073Z,1007.73
2022-10-26T08:21:46.915Z,1007.69
2022-10-26T08:22:32.041Z,1007.68
2022-10-26T08:23:32.014Z,1007.65
2022-10-26T08:24:32.006Z,1007.65
2022-10-26T08:25:31.981Z,1007.63
2022-10-26T08:26:31.969Z,1007.62
2022-10-26T08:27:31.951Z,1007.68
2022-10-26T08:28:31.921Z,1007.67
2022-10-26T08:29:31.905Z,1007.74
2022-10-26T08:30:31.984Z,1007.69
2022-10-26T08:31:31.871Z,1007.70
2022-10-26T08:32:31.850Z,1007.69
2022-10-26T08:33:31.828Z,1007.76
2022-10-26T08:34:31.816Z,1007.81
2022-10-26T08:35:31.795Z,1007.80
2022-10-26T08:36:31.774Z,1007.79
2022-10-26T08:37:31.759Z,1007.78
2022-10-26T08:38:31.753Z,1007.79
2022-10-26T08:39:31.726Z,1007.77
2022-10-26T08:40:31.707Z,1008.00
2022-10-26T08:41:31.693Z,1007.94
2022-10-26T08:42:31.681Z,1007.92
2022-10-26T08:43:31.661Z,1008.42
2022-10-26T08:44:31.656Z,1008.23
2022-10-26T08:45:36.643Z,1007.93
2022-10-26T08:46:31.664Z,1008.11
2022-10-26T08:47:31.605Z,1007.76
2022-10-26T08:48:31.590Z,1008.27
2022-10-26T08:49:31.574Z,1008.44
2022-10-26T08:50:31.561Z,1008.37
2022-10-26T08:51:31.547Z,1008.38
2022-10-26T08:52:31.535Z,1008.41
2022-10-26T08:53:31.537Z,1008.44
2022-10-26T08:54:31.511Z,1008.49
2022-10-26T08:55:31.555Z,1007.81
2022-10-26T08:56:31.488Z,1008.51
2022-10-26T08:57:31.480Z,1008.36
2022-10-26T08:58:31.474Z,1008.49
2022-10-26T08:59:31.454Z,1008.52
2022-10-26T09:00:31.456Z,1008.44
2022-10-26T09:01:31.558Z,1008.09
2022-10-26T09:02:31.456Z,1008.44
2022-10-26T09:03:33.191Z,1007.98
2022-10-26T09:04:31.421Z,1007.83
2022-10-26T09:05:33.498Z,1007.73
2022-10-26T09:06:31.390Z,1007.73
2022-10-26T09:07:31.380Z,1007.63
2022-10-26T09:08:31.374Z,1007.67
2022-10-26T09:09:31.365Z,1007.61
2022-10-26T09:10:31.362Z,1007.65
2022-10-26T09:11:31.344Z,1007.68
2022-10-26T09:12:31.329Z,1007.73
2022-10-26T09:13:31.330Z,1007.72
2022-10-26T09:14:31.307Z,1007.69
2022-10-26T09:15:31.294Z,1007.67
2022-10-26T09:16:31.285Z,1007.74
2022-10-26T09:17:31.289Z,1007.69
2022-10-26T09:18:31.282Z,1007.75
2022-10-26T09:19:31.254Z,1007.80
2022-10-26T09:20:31.236Z,1007.84
2022-10-26T09:21:31.217Z,1007.92
2022-10-26T09:22:31.222Z,1007.97
2022-10-26T09:23:31.198Z,1008.00
2022-10-26T09:24:31.192Z,1008.05
2022-10-26T09:25:31.173Z,1008.18
2022-10-26T09:26:31.155Z,1008.22
2022-10-26T09:27:31.144Z,1008.91
2022-10-26T09:28:31.131Z,1008.38
2022-10-26T09:29:31.122Z,1008.76
2022-10-26T09:30:31.109Z,1008.97
2022-10-26T09:31:31.092Z,1008.95
2022-10-26T09:32:31.078Z,1008.93
2022-10-26T09:33:31.069Z,1008.91
2022-10-26T09:34:31.077Z,1008.82
2022-10-26T09:35:31.050Z,1008.78
2022-10-26T09:36:31.035Z,1008.64
2022-10-26T09:37:31.024Z,1008.50
2022-10-26T09:38:31.017Z,1008.49
2022-10-26T09:39:31.005Z,1008.60
2022-10-26T09:40:30.995Z,1008.89
2022-10-26T09:41:32.200Z,1009.04
2022-10-26T09:42:30.980Z,1009.12
2022-10-26T09:43:30.971Z,1009.16
2022-10-26T09:44:30.969Z,1009.15
2022-10-26T09:45:30.951Z,1009.06
2022-10-26T09:46:30.940Z,1009.02
2022-10-26T09:47:30.936Z,1008.98
2022-10-26T09:48:30.920Z,1009.02
2022-10-26T09:49:30.913Z,1009.11
2022-10-26T09:50:30.925Z,1009.26
2022-10-26T09:51:30.898Z,1009.48
2022-10-26T09:52:30.889Z,1009.70
2022-10-26T09:53:30.881Z,1009.77
2022-10-26T09:54:30.872Z,1009.86
2022-10-26T09:55:30.860Z,1009.84
2022-10-26T09:56:30.855Z,1009.78
2022-10-26T09:57:30.847Z,1010.16
2022-10-26T09:58:30.844Z,1010.23
2022-10-26T09:59:30.832Z,1010.11
2022-10-26T10:00:30.913Z,1009.83
2022-10-26T10:01:30.888Z,1010.18
2022-10-26T10:02:30.855Z,1010.34
2022-10-26T10:03:30.800Z,1009.79
2022-10-26T10:04:30.791Z,1009.26
2022-10-26T10:05:51.388Z,1010.05
2022-10-26T10:06:30.811Z,1010.80
2022-10-26T10:07:30.769Z,1010.87
2022-10-26T10:08:30.758Z,1010.43
2022-10-26T10:09:30.753Z,1009.63
2022-10-26T10:10:30.750Z,1008.68
2022-10-26T10:11:30.735Z,1008.76
2022-10-26T10:12:30.730Z,1008.86
2022-10-26T10:13:30.721Z,1009.25
2022-10-26T10:14:32.594Z,1008.95
2022-10-26T10:15:30.701Z,1008.75
2022-10-26T10:16:30.694Z,1008.73
2022-10-26T10:17:30.685Z,1008.72
2022-10-26T10:18:30.672Z,1008.73
2022-10-26T10:19:30.668Z,1008.71
2022-10-26T10:20:30.654Z,1008.71
2022-10-26T10:21:30.650Z,1008.71
2022-10-26T10:22:30.749Z,1008.76
2022-10-26T10:23:30.628Z,1008.74
2022-10-26T10:24:30.672Z,1008.78
2022-10-26T10:25:30.610Z,1008.79
2022-10-26T10:26:30.593Z,1008.78
2022-10-26T10:27:30.589Z,1008.79
2022-10-26T10:28:30.575Z,1008.83
2022-10-26T10:29:30.564Z,1008.84
2022-10-26T10:30:30.552Z,1008.80
2022-10-26T10:31:30.542Z,1008.84
2022-10-26T10:32:30.531Z,1008.81
2022-10-26T10:33:30.518Z,1008.87
2022-10-26T10:34:30.517Z,1008.82
2022-10-26T10:35:30.497Z,1008.86
2022-10-26T10:36:30.486Z,1008.84
2022-10-26T10:37:30.477Z,1008.88
2022-10-26T10:38:30.482Z,1008.91
2022-10-26T10:39:30.457Z,1008.91
2022-10-26T10:40:30.441Z,1008.88
2022-10-26T10:41:30.435Z,1008.89
2022-10-26T10:42:30.414Z,1008.84
2022-10-26T10:43:30.405Z,1008.83
2022-10-26T10:44:30.396Z,1008.88
2022-10-26T10:45:30.388Z,1008.83
2022-10-26T10:46:30.370Z,1008.87
2022-10-26T10:47:30.431Z,1008.83
2022-10-26T10:48:31.728Z,1008.81
2022-10-26T10:49:30.336Z,1008.82
2022-10-26T10:50:30.326Z,1008.84
2022-10-26T10:51:30.311Z,1008.79
2022-10-26T10:52:30.302Z,1008.83
2022-10-26T10:53:30.290Z,1008.83
2022-10-26T10:54:30.299Z,1008.82
2022-10-26T10:55:30.262Z,1008.83
2022-10-26T10:56:30.249Z,1008.85
2022-10-26T10:57:30.237Z,1008.86
2022-10-26T10:58:30.226Z,1008.90
2022-10-26T10:59:30.223Z,1008.84
2022-10-26T11:00:30.202Z,1008.82
2022-10-26T11:01:30.308Z,1008.87
2022-10-26T11:02:30.300Z,1008.96
2022-10-26T11:03:30.167Z,1008.80
2022-10-26T11:04:30.154Z,1008.95
2022-10-26T11:05:30.139Z,1008.88
2022-10-26T11:06:30.136Z,1008.89
2022-10-26T11:07:30.114Z,1008.79
2022-10-26T11:08:30.103Z,1008.84
2022-10-26T11:09:30.092Z,1008.88
2022-10-26T11:10:30.106Z,1008.89
2022-10-26T11:11:30.069Z,1008.93
2022-10-26T11:12:30.119Z,1008.92
2022-10-26T11:13:30.050Z,1008.98
2022-10-26T11:14:30.033Z,1008.93
2022-10-26T11:15:30.024Z,1008.91
2022-10-26T11:16:30.012Z,1008.93
2022-10-26T11:17:29.999Z,1008.96
2022-10-26T11:18:29.984Z,1008.87
2022-10-26T11:19:29.975Z,1008.89
2022-10-26T11:20:29.962Z,1008.88
2022-10-26T11:21:29.972Z,1008.92
2022-10-26T11:22:29.942Z,1008.89
2022-10-26T11:23:29.933Z,1008.93
2022-10-26T11:24:29.929Z,1008.92
2022-10-26T11:25:29.908Z,1008.91
2022-10-26T11:26:29.917Z,1008.88
2022-10-26T11:27:29.888Z,1008.86
2022-10-26T11:28:29.890Z,1008.90
2022-10-26T11:29:31.749Z,1008.86
2022-10-26T11:30:29.854Z,1008.76
2022-10-26T11:31:29.845Z,1008.80
2022-10-26T11:32:29.844Z,1008.79
2022-10-26T11:33:29.830Z,1008.83
2022-10-26T11:34:29.825Z,1008.87
2022-10-26T11:35:29.806Z,1008.85
2022-10-26T11:36:29.794Z,1008.86
2022-10-26T11:37:29.877Z,1008.86
2022-10-26T11:38:39.273Z,1008.85
2022-10-26T11:39:29.768Z,1008.88
2022-10-26T11:40:29.765Z,1008.85
2022-10-26T11:41:29.751Z,1008.87
2022-10-26T11:42:29.758Z,1008.90
2022-10-26T11:43:29.724Z,1008.88
2022-10-26T11:44:29.716Z,1008.86
2022-10-26T11:45:29.706Z,1008.92
2022-10-26T11:46:29.707Z,1008.84
2022-10-26T11:47:29.682Z,1008.80
2022-10-26T11:48:29.676Z,1008.80
2022-10-26T11:49:29.672Z,1008.76
2022-10-26T11:50:29.653Z,1008.75
2022-10-26T11:51:29.638Z,1008.80
2022-10-26T11:52:29.628Z,1008.81
2022-10-26T11:53:29.622Z,1008.79
2022-10-26T11:54:29.617Z,1008.82
2022-10-26T11:55:29.603Z,1008.80
2022-10-26T11:56:29.592Z,1008.82
2022-10-26T11:57:29.583Z,1008.86
2022-10-26T11:58:29.590Z,1008.83
2022-10-26T11:59:33.081Z,1008.89
2022-10-26T12:00:29.554Z,1008.86
2022-10-26T12:01:29.636Z,1008.94
2022-10-26T12:02:29.564Z,1008.98
2022-10-26T12:03:29.522Z,1008.96
2022-10-26T12:04:29.511Z,1008.95
2022-10-26T12:05:29.499Z,1009.01
2022-10-26T12:06:29.500Z,1008.98
2022-10-26T12:07:29.482Z,1008.96